Villa Rica, Georgia
Current Conditions -  °F | °C
As of 11:35 AM on Saturday 20 Dec 2014 (Local Time) from KPUJ Reporting Station
Haze Haze  
Wind Chill: 43°   Ceiling: 900
Heat Index: 43°   Visibility: 4mi
Dew Point: 43°   Wind: 0mph
Humidity: 100%   Direction: NA
Pressure: 30.2"   Gusts: NA
Location:  33.73°N, 84.92°W
Report Text: KPUJ 201635Z AUTO 00000KT 4SM BR OVC009 06/06 A3020 RMK AO2
Loading
Personal Weather Stations






























Interactive Weather Map New forecast layout! Learn more

10-Day Weather Forecast

Advertisements
Track Severe Weather on mobile